Time;durP1;ratioP1;P1;durP2;ratioP2;P2;SDS_P1;SDS_P2;PMS_P1;PMS_P2;Temp;Humidity;BMP_temperature;BMP_pressure;BME280_temperature;BME280_humidity;BME280_pressure;Samples;Min_cycle;Max_cycle;Signal;HPM_P1;HPM_P2
2023/09/29 00:02:06;;;;;;;;;;;;;;;22.37;47.75;100414.63;5065985;28;19912;-66
2023/09/29 00:04:32;;;;;;;;;;;;;;;22.37;47.47;100411.06;5054285;28;19916;-66
2023/09/29 00:06:57;;;;;;;;;;;;;;;22.35;47.50;100416.00;5054010;28;19912;-66
2023/09/29 00:09:22;;;;;;;;;;;;;;;22.36;47.37;100393.84;5053712;28;20294;-66
2023/09/29 00:11:48;;;;;;;;;;;;;;;22.38;47.14;100375.22;5053927;28;19912;-66
2023/09/29 00:14:13;;;;;;;;;;;;;;;22.38;47.18;100380.72;5066958;28;19912;-66
2023/09/29 00:16:39;;;;;;;;;;;;;;;22.27;47.20;100394.66;5085461;28;19912;-66
2023/09/29 00:19:04;;;;;;;;;;;;;;;22.23;47.50;100397.91;5095250;28;20244;-66
2023/09/29 00:21:29;;;;;;;;;;;;;;;22.16;47.81;100386.41;5095055;28;19920;-66
2023/09/29 00:23:55;;;;;;;;;;;;;;;22.16;47.02;100388.34;5084873;28;19963;-66
2023/09/29 00:26:20;;;;;;;;;;;;;;;22.16;47.65;100383.69;5073631;28;20505;-66
2023/09/29 00:28:46;;;;;;;;;;;;;;;22.23;47.37;100378.75;5073461;28;19912;-66
2023/09/29 00:31:11;;;;;;;;;;;;;;;22.20;47.24;100375.75;5073154;28;19931;-67
2023/09/29 00:33:36;;;;;;;;;;;;;;;22.23;46.79;100354.16;5073357;28;20369;-66
2023/09/29 00:36:01;;;;;;;;;;;;;;;22.23;46.78;100365.09;5072656;28;19918;-66
2023/09/29 00:38:27;;;;;;;;;;;;;;;22.07;47.07;100365.38;5074309;28;20415;-66
2023/09/29 00:40:52;;;;;;;;;;;;;;;22.07;47.48;100360.69;5074719;28;19913;-66
2023/09/29 00:43:17;;;;;;;;;;;;;;;22.12;46.91;100360.72;5074279;28;20702;-66
2023/09/29 00:45:43;;;;;;;;;;;;;;;22.17;46.95;100371.63;5074512;28;19912;-66
2023/09/29 00:48:10;;;;;;;;;;;;;;;22.17;46.85;100376.28;5074582;28;19916;-66
2023/09/29 00:50:36;;;;;;;;;;;;;;;22.20;47.17;100376.56;5074928;28;19913;-66
2023/09/29 00:53:08;;;;;;;;;;;;;;;22.14;46.96;100360.41;5075670;28;19916;-66
2023/09/29 00:55:35;;;;;;;;;;;;;;;22.09;47.56;100346.75;5077774;28;19913;-66
2023/09/29 00:58:03;;;;;;;;;;;;;;;22.18;47.62;100318.56;5078540;28;19912;-66
2023/09/29 01:02:58;;;;;;;;;;;;;;;22.18;47.50;100332.25;5063133;28;20412;-66
2023/09/29 01:05:23;;;;;;;;;;;;;;;22.04;47.66;100329.22;5057452;28;19962;-66
2023/09/29 01:07:51;;;;;;;;;;;;;;;22.15;47.26;100323.78;5057809;28;19913;-66
2023/09/29 01:10:17;;;;;;;;;;;;;;;22.17;47.48;100330.59;5068547;28;19913;-66
2023/09/29 01:12:43;;;;;;;;;;;;;;;22.17;47.24;100319.66;5077629;28;19916;-66
2023/09/29 01:15:13;;;;;;;;;;;;;;;22.21;47.17;100304.34;5077040;28;19973;-66
2023/09/29 01:17:41;;;;;;;;;;;;;;;22.20;47.24;100302.72;5096407;28;19912;-66
2023/09/29 01:20:13;;;;;;;;;;;;;;;22.16;47.29;100298.06;5097694;28;19912;-66
2023/09/29 01:22:48;;;;;;;;;;;;;;;22.13;47.61;100315.84;5097448;28;19912;-66
2023/09/29 01:25:14;;;;;;;;;;;;;;;22.06;47.40;100309.81;5078280;28;19912;-66
2023/09/29 01:27:39;;;;;;;;;;;;;;;21.90;48.00;100302.72;5077479;28;20395;-66
2023/09/29 01:30:06;;;;;;;;;;;;;;;21.96;47.91;100282.50;5078016;28;19913;-66
2023/09/29 01:32:32;;;;;;;;;;;;;;;22.00;47.79;100257.03;5077719;28;19917;-66
2023/09/29 01:34:57;;;;;;;;;;;;;;;21.91;48.21;100285.22;5077625;28;19962;-66
2023/09/29 01:37:23;;;;;;;;;;;;;;;21.80;48.55;100342.66;5077942;28;19913;-66
2023/09/29 01:39:48;;;;;;;;;;;;;;;21.78;48.54;100335.78;5077562;28;19912;-66
2023/09/29 01:42:15;;;;;;;;;;;;;;;21.92;47.97;100333.34;5078325;28;20003;-66
2023/09/29 01:44:40;;;;;;;;;;;;;;;21.87;48.22;100349.75;5078035;28;19923;-66
2023/09/29 01:47:05;;;;;;;;;;;;;;;21.75;48.85;100350.00;5077042;28;19916;-66
2023/09/29 01:49:31;;;;;;;;;;;;;;;21.76;48.69;100354.38;5077681;28;20250;-66
2023/09/29 01:51:56;;;;;;;;;;;;;;;21.82;48.43;100361.50;5077596;28;19965;-66
2023/09/29 01:54:22;;;;;;;;;;;;;;;21.84;48.57;100365.63;5076993;28;19912;-66
2023/09/29 01:56:47;;;;;;;;;;;;;;;21.93;48.40;100370.53;5095476;28;19919;-66
2023/09/29 01:59:12;;;;;;;;;;;;;;;21.91;48.45;100370.78;5097574;28;20443;-66
2023/09/29 02:01:38;;;;;;;;;;;;;;;21.98;48.59;100373.28;5093483;28;19912;-66
2023/09/29 02:04:04;;;;;;;;;;;;;;;21.97;48.13;100380.66;5077432;28;19916;-66
2023/09/29 02:06:30;;;;;;;;;;;;;;;21.88;48.68;100365.03;5077569;28;19951;-66
2023/09/29 02:08:57;;;;;;;;;;;;;;;21.97;48.26;100336.91;5076522;28;19943;-66
2023/09/29 02:11:22;;;;;;;;;;;;;;;22.00;48.24;100325.41;5075979;28;19912;-66
2023/09/29 02:13:48;;;;;;;;;;;;;;;22.01;47.89;100299.72;5075897;28;19935;-66
2023/09/29 02:16:15;;;;;;;;;;;;;;;21.95;47.51;100289.88;5064639;28;19916;-66
2023/09/29 02:18:41;;;;;;;;;;;;;;;22.08;47.57;100265.78;5096225;28;20383;-66
2023/09/29 02:21:09;;;;;;;;;;;;;;;22.07;47.47;100264.97;5084006;28;19917;-66
2023/09/29 02:23:35;;;;;;;;;;;;;;;22.04;47.66;100258.13;5081932;28;19916;-66
2023/09/29 02:26:00;;;;;;;;;;;;;;;22.14;47.56;100259.22;5096402;28;19923;-66
2023/09/29 02:28:30;;;;;;;;;;;;;;;22.02;47.66;100292.31;5088630;28;19916;-66
2023/09/29 02:30:57;;;;;;;;;;;;;;;21.78;48.03;100292.06;5076857;28;19916;-66
2023/09/29 02:33:25;;;;;;;;;;;;;;;21.86;48.28;100297.00;5077221;28;19917;-66
2023/09/29 02:35:50;;;;;;;;;;;;;;;21.90;47.71;100306.28;5076592;28;19995;-66
2023/09/29 02:38:16;;;;;;;;;;;;;;;21.93;47.77;100311.19;5077014;28;19960;-66
2023/09/29 02:40:42;;;;;;;;;;;;;;;21.84;47.45;100301.88;5077066;28;19952;-66
2023/09/29 02:43:07;;;;;;;;;;;;;;;21.79;47.88;100278.13;5076693;28;20387;-66
2023/09/29 02:45:33;;;;;;;;;;;;;;;21.71;47.79;100275.09;5075977;28;20324;-66
2023/09/29 02:47:58;;;;;;;;;;;;;;;21.73;47.64;100270.16;5075494;28;19913;-66
2023/09/29 02:50:24;;;;;;;;;;;;;;;21.74;47.87;100269.91;5095225;28;20258;-66
2023/09/29 02:52:51;;;;;;;;;;;;;;;21.83;47.59;100281.94;5083851;28;19936;-66
2023/09/29 02:55:17;;;;;;;;;;;;;;;21.94;47.20;100273.75;5080229;28;19912;-66
2023/09/29 02:57:44;;;;;;;;;;;;;;;22.01;47.44;100279.75;5096159;28;19912;-66
2023/09/29 03:00:18;;;;;;;;;;;;;;;21.85;47.59;100287.94;5095640;28;19919;-66
2023/09/29 03:02:44;;;;;;;;;;;;;;;21.53;47.94;100312.81;5081674;28;19919;-66
2023/09/29 03:05:09;;;;;;;;;;;;;;;21.65;47.81;100301.59;5075076;28;19912;-66
2023/09/29 03:07:35;;;;;;;;;;;;;;;21.53;47.79;100310.06;5075045;28;19979;-66
2023/09/29 03:10:00;;;;;;;;;;;;;;;21.56;47.91;100301.34;5057054;28;19931;-66
2023/09/29 03:12:26;;;;;;;;;;;;;;;21.57;47.55;100293.97;5074768;28;19940;-67
2023/09/29 03:14:52;;;;;;;;;;;;;;;21.47;47.38;100286.56;5075087;28;20011;-66
2023/09/29 03:17:17;;;;;;;;;;;;;;;21.36;47.76;100299.34;5090642;28;19988;-66
2023/09/29 03:19:43;;;;;;;;;;;;;;;21.59;47.29;100289.03;5095268;28;19955;-67
2023/09/29 03:22:11;;;;;;;;;;;;;;;21.78;47.36;100276.47;5095279;28;20408;-66
2023/09/29 03:24:37;;;;;;;;;;;;;;;21.69;47.11;100289.03;5087959;28;19971;-66
2023/09/29 03:27:03;;;;;;;;;;;;;;;21.79;46.62;100301.91;5074563;28;19913;-67
2023/09/29 03:29:29;;;;;;;;;;;;;;;21.65;46.61;100288.75;5074553;28;20515;-66
2023/09/29 03:31:54;;;;;;;;;;;;;;;21.64;46.61;100286.31;5074735;28;19912;-67
2023/09/29 03:34:20;;;;;;;;;;;;;;;21.70;46.63;100274.28;5074341;28;19966;-67
2023/09/29 03:36:45;;;;;;;;;;;;;;;21.67;47.03;100288.47;5074599;28;19958;-67
2023/09/29 03:39:11;;;;;;;;;;;;;;;21.67;47.03;100290.41;5074751;28;19920;-66
2023/09/29 03:41:36;;;;;;;;;;;;;;;21.76;46.68;100292.31;5074502;28;19916;-66
2023/09/29 03:44:01;;;;;;;;;;;;;;;21.73;46.66;100295.63;5074438;28;20019;-66
2023/09/29 03:46:28;;;;;;;;;;;;;;;21.72;46.22;100288.50;5074394;28;19916;-66
2023/09/29 03:48:54;;;;;;;;;;;;;;;21.65;46.37;100301.59;5074527;28;19912;-67
2023/09/29 03:51:23;;;;;;;;;;;;;;;21.64;46.35;100302.72;5074615;28;19919;-67
2023/09/29 03:53:57;;;;;;;;;;;;;;;21.69;46.41;100299.97;5074308;28;19935;-67
2023/09/29 03:56:23;;;;;;;;;;;;;;;21.73;46.25;100294.78;5074229;28;19916;-67
2023/09/29 03:58:55;;;;;;;;;;;;;;;21.79;45.57;100286.31;5065413;28;19958;-67
2023/09/29 04:01:21;;;;;;;;;;;;;;;21.60;46.08;100286.03;5054179;28;20008;-67
2023/09/29 04:03:46;;;;;;;;;;;;;;;21.56;46.36;100286.84;5054363;28;19968;-67
2023/09/29 04:06:11;;;;;;;;;;;;;;;21.56;46.19;100284.09;5055596;28;19917;-66
2023/09/29 04:08:37;;;;;;;;;;;;;;;21.54;46.33;100289.03;5055193;28;20318;-66
2023/09/29 04:11:02;;;;;;;;;;;;;;;21.59;45.99;100280.84;5055644;28;19917;-67
2023/09/29 04:13:28;;;;;;;;;;;;;;;21.50;46.22;100271.53;5055232;28;20320;-67
2023/09/29 04:15:53;;;;;;;;;;;;;;;21.61;46.10;100270.44;5063115;28;20376;-66
2023/09/29 04:18:18;;;;;;;;;;;;;;;21.62;45.94;100256.53;5095295;28;19912;-66
2023/09/29 04:20:44;;;;;;;;;;;;;;;21.61;45.88;100279.47;5089849;28;19920;-66
2023/09/29 04:23:09;;;;;;;;;;;;;;;21.59;45.76;100261.72;5077185;28;19916;-66
2023/09/29 04:25:35;;;;;;;;;;;;;;;21.62;45.58;100258.44;5095217;28;19912;-67
2023/09/29 04:28:00;;;;;;;;;;;;;;;21.64;45.51;100267.19;5096278;28;19919;-66
2023/09/29 04:30:26;;;;;;;;;;;;;;;21.61;45.48;100270.44;5099567;28;19916;-67
2023/09/29 04:32:52;;;;;;;;;;;;;;;21.62;45.44;100267.44;5099122;28;19920;-67
2023/09/29 04:35:18;;;;;;;;;;;;;;;21.56;45.69;100262.25;5093156;28;19916;-67
2023/09/29 04:37:43;;;;;;;;;;;;;;;21.54;45.64;100250.75;5078567;28;19912;-67
2023/09/29 04:40:08;;;;;;;;;;;;;;;21.49;45.48;100257.06;5078499;28;19913;-67
2023/09/29 04:42:34;;;;;;;;;;;;;;;21.50;45.47;100242.28;5078105;28;19956;-67
2023/09/29 04:44:59;;;;;;;;;;;;;;;21.53;45.58;100246.41;5077905;28;19912;-66
2023/09/29 04:47:25;;;;;;;;;;;;;;;21.61;45.48;100245.84;5077960;28;19912;-66
2023/09/29 04:49:50;;;;;;;;;;;;;;;21.49;45.64;100243.41;5077676;28;19912;-66
2023/09/29 04:52:16;;;;;;;;;;;;;;;21.51;45.33;100233.00;5077977;28;19957;-66
2023/09/29 04:54:41;;;;;;;;;;;;;;;21.60;45.45;100230.53;5077308;28;20369;-66
2023/09/29 04:57:06;;;;;;;;;;;;;;;21.62;45.52;100234.66;5077884;28;19921;-68
2023/09/29 04:59:32;;;;;;;;;;;;;;;21.60;45.53;100228.66;5077838;28;19922;-67
2023/09/29 05:01:57;;;;;;;;;;;;;;;21.59;45.70;100226.19;5070909;28;19913;-66
2023/09/29 05:04:22;;;;;;;;;;;;;;;21.67;45.91;100230.28;5057750;28;19924;-66
2023/09/29 05:06:47;;;;;;;;;;;;;;;21.71;45.46;100215.81;5057676;28;19959;-65
2023/09/29 05:09:13;;;;;;;;;;;;;;;21.74;45.48;100217.16;5057577;28;19921;-66
2023/09/29 05:11:38;;;;;;;;;;;;;;;21.79;45.76;100226.16;5057739;28;19912;-66
2023/09/29 05:14:05;;;;;;;;;;;;;;;21.85;45.76;100219.59;5057538;28;19920;-66
2023/09/29 05:16:30;;;;;;;;;;;;;;;21.85;45.88;100219.59;5074222;28;20353;-66
2023/09/29 05:18:55;;;;;;;;;;;;;;;21.80;45.82;100214.16;5077738;28;19939;-66
2023/09/29 05:21:22;;;;;;;;;;;;;;;21.72;46.05;100209.22;5076980;28;20354;-66
2023/09/29 05:23:48;;;;;;;;;;;;;;;21.65;46.15;100208.69;5077523;28;19916;-66
2023/09/29 05:26:13;;;;;;;;;;;;;;;21.60;46.17;100205.94;5077550;28;19919;-66
2023/09/29 05:28:38;;;;;;;;;;;;;;;21.64;46.37;100207.06;5077821;28;20296;-66
2023/09/29 05:31:04;;;;;;;;;;;;;;;21.60;46.42;100217.72;5077541;28;19913;-66
2023/09/29 05:33:30;;;;;;;;;;;;;;;21.60;46.17;100219.59;5077643;28;20366;-66
2023/09/29 05:35:55;;;;;;;;;;;;;;;21.57;46.86;100210.06;5077944;28;20357;-66
2023/09/29 05:38:21;;;;;;;;;;;;;;;21.55;46.61;100209.50;5077012;28;19922;-66
2023/09/29 05:40:49;;;;;;;;;;;;;;;21.62;46.81;100206.50;5077587;28;20380;-66
2023/09/29 05:43:15;;;;;;;;;;;;;;;21.77;46.27;100209.22;5077213;28;19916;-66
2023/09/29 05:45:41;;;;;;;;;;;;;;;21.66;46.54;100213.06;5077028;28;20327;-66
2023/09/29 05:48:06;;;;;;;;;;;;;;;21.64;46.63;100210.59;5077732;28;19912;-66
2023/09/29 05:50:31;;;;;;;;;;;;;;;21.66;46.61;100202.13;5077516;28;20361;-66
2023/09/29 05:52:57;;;;;;;;;;;;;;;21.56;46.67;100202.97;5077251;28;19916;-66
2023/09/29 05:55:23;;;;;;;;;;;;;;;21.55;46.34;100200.50;5075929;28;19916;-66
2023/09/29 05:57:49;;;;;;;;;;;;;;;21.59;46.66;100204.31;5077089;28;20238;-66
2023/09/29 06:00:15;;;;;;;;;;;;;;;21.67;46.02;100214.69;5076738;28;19943;-66
2023/09/29 06:02:40;;;;;;;;;;;;;;;21.61;46.30;100204.84;5076384;28;20293;-66
2023/09/29 06:05:06;;;;;;;;;;;;;;;21.61;45.93;100196.66;5077061;28;19919;-66
2023/09/29 06:07:32;;;;;;;;;;;;;;;21.77;45.98;100179.16;5077579;28;20012;-66
2023/09/29 06:09:57;;;;;;;;;;;;;;;21.83;45.68;100178.06;5076802;28;20054;-66
2023/09/29 06:12:22;;;;;;;;;;;;;;;21.93;45.75;100181.88;5059322;28;19965;-66
2023/09/29 06:14:48;;;;;;;;;;;;;;;21.82;45.55;100187.38;5058894;28;20446;-66
2023/09/29 06:17:13;;;;;;;;;;;;;;;21.77;46.16;100192.03;5076666;28;19912;-66
2023/09/29 06:19:38;;;;;;;;;;;;;;;21.76;46.34;100202.09;5075999;28;19913;-66
2023/09/29 06:22:04;;;;;;;;;;;;;;;21.71;46.38;100213.06;5076627;28;19962;-66
2023/09/29 06:24:30;;;;;;;;;;;;;;;21.80;46.31;100214.16;5071273;28;20365;-66
2023/09/29 06:26:55;;;;;;;;;;;;;;;21.85;46.47;100222.34;5096849;28;19912;-66
2023/09/29 06:29:21;;;;;;;;;;;;;;;21.76;47.19;100223.97;5077584;28;19917;-66
2023/09/29 06:31:46;;;;;;;;;;;;;;;21.91;46.73;100225.06;5075067;28;19966;-66
2023/09/29 06:34:11;;;;;;;;;;;;;;;21.75;46.71;100219.63;5086533;28;20387;-66
2023/09/29 06:36:36;;;;;;;;;;;;;;;21.85;46.68;100227.00;5096807;28;19912;-66
2023/09/29 06:39:02;;;;;;;;;;;;;;;21.84;47.17;100212.50;5096074;28;20369;-66
2023/09/29 06:41:27;;;;;;;;;;;;;;;21.88;47.05;100217.41;5095736;28;19912;-66
2023/09/29 06:43:53;;;;;;;;;;;;;;;21.75;47.05;100200.50;5096234;28;19916;-66
2023/09/29 06:46:18;;;;;;;;;;;;;;;21.69;47.33;100215.22;5089877;28;19912;-66
2023/09/29 06:48:44;;;;;;;;;;;;;;;21.77;47.10;100219.34;5056974;28;19936;-66
2023/09/29 06:51:09;;;;;;;;;;;;;;;21.60;47.07;100214.13;5055431;28;20257;-66
2023/09/29 06:53:35;;;;;;;;;;;;;;;21.74;46.94;100214.44;5056498;28;19913;-66
2023/09/29 06:56:00;;;;;;;;;;;;;;;21.75;46.83;100200.50;5077847;28;19916;-67
2023/09/29 06:58:26;;;;;;;;;;;;;;;21.69;46.67;100211.69;5078682;28;19947;-67
2023/09/29 07:00:51;;;;;;;;;;;;;;;21.60;46.83;100219.59;5078209;28;20277;-66
2023/09/29 07:03:17;;;;;;;;;;;;;;;21.69;46.94;100220.69;5096397;28;19931;-66
2023/09/29 07:05:43;;;;;;;;;;;;;;;21.85;46.76;100230.53;5096384;28;19912;-66
2023/09/29 07:08:08;;;;;;;;;;;;;;;21.90;46.26;100223.41;5095580;28;20388;-67
2023/09/29 07:10:33;;;;;;;;;;;;;;;21.91;46.22;100228.63;5082055;28;19913;-65
2023/09/29 07:12:59;;;;;;;;;;;;;;;21.92;46.27;100232.19;5077621;28;19912;-65
2023/09/29 07:15:24;;;;;;;;;;;;;;;22.03;46.50;100231.06;5076835;28;19912;-65
2023/09/29 07:17:50;;;;;;;;;;;;;;;22.08;46.22;100236.53;5097986;28;19916;-65
2023/09/29 07:20:16;;;;;;;;;;;;;;;22.14;46.02;100232.69;5096966;28;19912;-65
2023/09/29 07:22:41;;;;;;;;;;;;;;;22.26;46.38;100232.41;5096728;28;19923;-65
2023/09/29 07:25:06;;;;;;;;;;;;;;;22.35;46.69;100235.41;5079393;28;19917;-65
2023/09/29 07:27:32;;;;;;;;;;;;;;;22.38;47.29;100234.84;5077578;28;19913;-65
2023/09/29 07:29:57;;;;;;;;;;;;;;;22.29;48.46;100234.63;5077901;28;19913;-65
2023/09/29 07:32:23;;;;;;;;;;;;;;;22.22;47.92;100239.53;5078405;28;20017;-65
2023/09/29 07:34:48;;;;;;;;;;;;;;;21.93;47.87;100234.63;5078336;28;19969;-65
2023/09/29 07:37:14;;;;;;;;;;;;;;;21.86;47.79;100236.84;5078369;28;19912;-65
2023/09/29 07:39:39;;;;;;;;;;;;;;;21.73;48.16;100240.94;5078344;28;19912;-65
2023/09/29 07:42:04;;;;;;;;;;;;;;;21.95;48.19;100231.63;5077542;28;19913;-65
2023/09/29 07:44:31;;;;;;;;;;;;;;;21.98;47.40;100226.41;5077106;28;19916;-65
2023/09/29 07:46:57;;;;;;;;;;;;;;;21.93;47.99;100226.41;5077458;28;19916;-65
2023/09/29 07:49:24;;;;;;;;;;;;;;;21.89;47.87;100230.81;5077593;28;19966;-64
2023/09/29 07:51:50;;;;;;;;;;;;;;;21.89;47.98;100225.34;5077561;28;20365;-65
2023/09/29 07:54:16;;;;;;;;;;;;;;;21.80;47.25;100218.78;5069824;28;19913;-65
2023/09/29 07:56:47;;;;;;;;;;;;;;;21.87;47.67;100222.06;5091535;28;19923;-65
2023/09/29 07:59:13;;;;;;;;;;;;;;;21.83;46.99;100215.50;5097420;28;19916;-65
2023/09/29 08:01:38;;;;;;;;;;;;;;;21.84;46.95;100204.31;5092646;28;19912;-65
2023/09/29 08:04:03;;;;;;;;;;;;;;;21.93;46.72;100201.00;5077377;28;19923;-65
2023/09/29 08:06:29;;;;;;;;;;;;;;;21.92;46.27;100213.06;5076917;28;19912;-65
2023/09/29 08:08:54;;;;;;;;;;;;;;;22.00;46.56;100212.47;5077049;28;19966;-65
2023/09/29 08:11:20;;;;;;;;;;;;;;;22.18;46.28;100213.81;5076653;28;19986;-65
2023/09/29 08:13:46;;;;;;;;;;;;;;;22.20;45.79;100209.69;5077205;28;19919;-65
2023/09/29 08:16:12;;;;;;;;;;;;;;;22.23;45.85;100214.63;5083821;28;19916;-65
2023/09/29 08:18:37;;;;;;;;;;;;;;;22.18;45.41;100220.09;5096814;28;19960;-65
2023/09/29 08:21:02;;;;;;;;;;;;;;;22.16;45.58;100219.56;5085091;28;20296;-65
2023/09/29 08:23:30;;;;;;;;;;;;;;;22.13;45.93;100224.75;5081291;28;19920;-65
2023/09/29 08:25:56;;;;;;;;;;;;;;;22.08;45.89;100222.84;5093872;28;20292;-65
2023/09/29 08:28:21;;;;;;;;;;;;;;;22.00;45.86;100218.75;5076890;28;19917;-65
2023/09/29 08:30:46;;;;;;;;;;;;;;;22.07;45.35;100226.69;5077011;28;19916;-65
2023/09/29 08:33:11;;;;;;;;;;;;;;;22.13;45.01;100220.09;5077042;28;19916;-65
2023/09/29 08:35:37;;;;;;;;;;;;;;;22.02;45.24;100216.56;5076777;28;19913;-65
2023/09/29 08:38:05;;;;;;;;;;;;;;;22.06;45.35;100216.03;5077603;28;19935;-65
2023/09/29 08:40:36;;;;;;;;;;;;;;;22.14;45.84;100205.34;5077100;28;20373;-65
2023/09/29 08:43:02;;;;;;;;;;;;;;;22.34;45.40;100200.94;5077081;28;19921;-65
2023/09/29 08:45:28;;;;;;;;;;;;;;;22.44;44.92;100208.31;5077902;28;19965;-65
2023/09/29 08:47:54;;;;;;;;;;;;;;;22.44;45.12;100216.53;5077130;28;19920;-65
2023/09/29 08:50:22;;;;;;;;;;;;;;;22.51;45.57;100212.38;5077244;28;19920;-65
2023/09/29 08:52:49;;;;;;;;;;;;;;;22.48;44.56;100214.84;5077188;28;19918;-65
2023/09/29 08:55:15;;;;;;;;;;;;;;;22.29;44.61;100214.63;5081772;28;19919;-64
2023/09/29 08:57:43;;;;;;;;;;;;;;;22.33;44.89;100213.00;5097357;28;19955;-65
2023/09/29 09:00:13;;;;;;;;;;;;;;;22.40;44.91;100208.84;5097532;28;19947;-65
2023/09/29 09:02:47;;;;;;;;;;;;;;;22.42;45.61;100211.31;5085003;28;19912;-65
2023/09/29 09:05:13;;;;;;;;;;;;;;;22.34;45.08;100212.72;5076685;28;20373;-65
2023/09/29 09:07:39;;;;;;;;;;;;;;;22.49;44.99;100208.28;5076419;28;19966;-65
2023/09/29 09:10:04;;;;;;;;;;;;;;;22.40;45.59;100211.59;5077205;28;19917;-65
2023/09/29 09:12:31;;;;;;;;;;;;;;;22.45;45.51;100212.66;5077208;28;19913;-65
2023/09/29 09:14:57;;;;;;;;;;;;;;;22.47;45.29;100211.28;5079725;28;19919;-65
2023/09/29 09:17:23;;;;;;;;;;;;;;;22.51;45.76;100208.81;5084397;28;19920;-65
2023/09/29 09:19:51;;;;;;;;;;;;;;;22.52;45.69;100208.53;5080736;28;19927;-65
2023/09/29 09:22:22;;;;;;;;;;;;;;;22.49;45.51;100202.78;5078634;28;19913;-65
2023/09/29 09:24:51;;;;;;;;;;;;;;;22.55;45.69;100218.94;5077801;28;19916;-65
2023/09/29 09:27:17;;;;;;;;;;;;;;;22.55;45.76;100207.97;5099228;28;19919;-65
2023/09/29 09:29:44;;;;;;;;;;;;;;;22.57;45.38;100205.78;5099452;28;19912;-65
2023/09/29 09:32:14;;;;;;;;;;;;;;;22.50;45.20;100204.44;5100245;28;19998;-65
2023/09/29 09:34:40;;;;;;;;;;;;;;;22.47;45.15;100211.28;5065435;28;19912;-65
2023/09/29 09:37:06;;;;;;;;;;;;;;;22.41;45.23;100209.66;5083977;28;19912;-65
2023/09/29 09:39:33;;;;;;;;;;;;;;;22.48;45.08;100196.50;5079557;28;20369;-65
2023/09/29 09:41:59;;;;;;;;;;;;;;;22.51;45.02;100193.22;5078992;28;19912;-65
2023/09/29 09:44:25;;;;;;;;;;;;;;;22.56;44.76;100189.63;5079208;28;19974;-65
2023/09/29 09:47:01;;;;;;;;;;;;;;;22.44;44.86;100194.63;5079635;28;19912;-65
2023/09/29 09:49:36;;;;;;;;;;;;;;;22.46;44.56;100189.69;5063143;28;20371;-65
2023/09/29 09:52:04;;;;;;;;;;;;;;;22.42;43.68;100182.03;5079059;28;19916;-65
2023/09/29 09:54:32;;;;;;;;;;;;;;;22.53;43.75;100177.34;5077907;28;20349;-64
2023/09/29 09:57:01;;;;;;;;;;;;;;;22.60;42.99;100177.84;5094474;28;19923;-65
2023/09/29 09:59:27;;;;;;;;;;;;;;;22.56;43.64;100178.69;5055633;28;19919;-65
2023/09/29 10:01:53;;;;;;;;;;;;;;;22.70;43.26;100182.47;5071738;28;19980;-65
2023/09/29 10:04:20;;;;;;;;;;;;;;;22.87;42.72;100193.03;5057919;28;20289;-65
2023/09/29 10:06:45;;;;;;;;;;;;;;;23.10;42.68;100177.03;5058183;28;19912;-64
2023/09/29 10:09:11;;;;;;;;;;;;;;;23.27;42.17;100184.88;5057752;28;19999;-64
2023/09/29 10:11:37;;;;;;;;;;;;;;;23.31;40.89;100192.25;5058160;28;19912;-64
2023/09/29 10:14:03;;;;;;;;;;;;;;;23.27;40.73;100176.66;5074856;28;19946;-65
2023/09/29 10:16:28;;;;;;;;;;;;;;;23.49;40.98;100187.16;5079815;28;19966;-65
2023/09/29 10:19:05;;;;;;;;;;;;;;;23.68;41.09;100177.13;5061201;28;19913;-65
2023/09/29 10:21:40;;;;;;;;;;;;;;;23.61;40.36;100173.91;5078969;28;19919;-65
2023/09/29 10:24:05;;;;;;;;;;;;;;;23.55;41.01;100175.03;5088351;28;19916;-65
2023/09/29 10:26:41;;;;;;;;;;;;;;;23.61;40.38;100178.59;5080081;28;19934;-65
2023/09/29 10:29:09;;;;;;;;;;;;;;;23.71;40.20;100182.03;5098877;28;19919;-65
2023/09/29 10:31:35;;;;;;;;;;;;;;;23.70;41.54;100176.81;5080414;28;19912;-65
2023/09/29 10:34:01;;;;;;;;;;;;;;;23.71;40.14;100176.53;5078981;28;19940;-65
2023/09/29 10:36:28;;;;;;;;;;;;;;;23.97;40.91;100190.03;5078948;28;19974;-65
2023/09/29 10:38:54;;;;;;;;;;;;;;;24.06;39.85;100180.06;5078883;28;19919;-65
2023/09/29 10:41:21;;;;;;;;;;;;;;;24.15;39.69;100186.56;5079230;28;19912;-65
2023/09/29 10:43:50;;;;;;;;;;;;;;;24.22;39.18;100180.72;5078430;28;19916;-65
2023/09/29 10:46:16;;;;;;;;;;;;;;;24.35;38.43;100181.97;5078967;28;19916;-65
2023/09/29 10:48:48;;;;;;;;;;;;;;;24.34;36.50;100178.38;5060686;28;19912;-65
2023/09/29 10:51:24;;;;;;;;;;;;;;;24.45;37.28;100173.59;5078342;28;19920;-65
2023/09/29 10:53:50;;;;;;;;;;;;;;;24.50;38.47;100168.03;5059360;28;19935;-65
2023/09/29 10:56:23;;;;;;;;;;;;;;;24.61;37.91;100176.16;5091841;28;19912;-65
2023/09/29 10:58:54;;;;;;;;;;;;;;;24.73;38.19;100176.56;5098795;28;19947;-65
2023/09/29 11:01:21;;;;;;;;;;;;;;;24.75;36.78;100179.81;5097052;28;20357;-65
2023/09/29 11:03:47;;;;;;;;;;;;;;;24.90;36.96;100182.34;5077884;28;19917;-65
2023/09/29 11:06:16;;;;;;;;;;;;;;;24.81;36.66;100184.13;5078542;28;19922;-65
2023/09/29 11:08:44;;;;;;;;;;;;;;;24.96;37.95;100183.09;5077917;28;19920;-65
2023/09/29 11:11:10;;;;;;;;;;;;;;;25.14;36.74;100172.41;5078354;28;19917;-65
2023/09/29 11:13:38;;;;;;;;;;;;;;;25.29;36.74;100170.25;5078543;28;19913;-65
2023/09/29 11:16:14;;;;;;;;;;;;;;;25.42;36.15;100174.16;5084232;28;19919;-65
2023/09/29 11:18:39;;;;;;;;;;;;;;;25.63;37.51;100168.31;5099132;28;19981;-65
2023/09/29 11:21:08;;;;;;;;;;;;;;;25.72;35.53;100155.50;5099310;28;19916;-66
2023/09/29 11:23:44;;;;;;;;;;;;;;;25.84;36.67;100166.84;5094040;28;19916;-66
2023/09/29 11:26:12;;;;;;;;;;;;;;;25.88;35.09;100167.06;5078608;28;19912;-66
2023/09/29 11:28:39;;;;;;;;;;;;;;;25.87;33.19;100170.91;5070870;28;19920;-66
2023/09/29 11:31:05;;;;;;;;;;;;;;;25.72;33.19;100171.19;5058146;28;19988;-66
2023/09/29 11:33:30;;;;;;;;;;;;;;;26.04;33.04;100173.94;5058005;28;19951;-64
2023/09/29 11:35:56;;;;;;;;;;;;;;;26.15;33.79;100169.06;5058109;28;20269;-64
2023/09/29 11:38:21;;;;;;;;;;;;;;;26.16;32.30;100169.84;5057594;28;19924;-65
2023/09/29 11:40:47;;;;;;;;;;;;;;;26.01;33.04;100170.97;5058669;28;19912;-65
2023/09/29 11:43:13;;;;;;;;;;;;;;;26.11;32.20;100164.44;5057976;28;19921;-65
2023/09/29 11:45:39;;;;;;;;;;;;;;;26.08;32.32;100158.44;5040648;28;19994;-65
2023/09/29 11:48:04;;;;;;;;;;;;;;;26.04;32.82;100151.09;5077561;28;19916;-65
2023/09/29 11:50:31;;;;;;;;;;;;;;;26.14;32.27;100153.63;5077933;28;19961;-65
2023/09/29 11:52:56;;;;;;;;;;;;;;;26.43;32.73;100145.06;5077386;28;20010;-65
2023/09/29 11:55:22;;;;;;;;;;;;;;;26.58;32.10;100141.16;5076511;28;20454;-65
2023/09/29 11:57:47;;;;;;;;;;;;;;;26.75;31.50;100139.75;5077206;28;19995;-65
2023/09/29 12:00:14;;;;;;;;;;;;;;;26.93;33.73;100143.44;5077349;28;19912;-66
2023/09/29 12:02:39;;;;;;;;;;;;;;;26.92;32.09;100136.31;5077556;28;19919;-66
2023/09/29 12:05:05;;;;;;;;;;;;;;;26.94;32.31;100134.06;5077385;28;19916;-66
2023/09/29 12:07:31;;;;;;;;;;;;;;;26.73;31.40;100137.28;5077878;28;19951;-66
2023/09/29 12:09:56;;;;;;;;;;;;;;;26.80;31.58;100137.69;5077033;28;19927;-66
2023/09/29 12:12:22;;;;;;;;;;;;;;;26.90;31.01;100133.88;5077831;28;20409;-66
2023/09/29 12:14:47;;;;;;;;;;;;;;;26.87;30.59;100128.97;5077209;28;19913;-66
2023/09/29 12:17:13;;;;;;;;;;;;;;;26.76;30.47;100125.63;5077311;28;20082;-66
2023/09/29 12:19:38;;;;;;;;;;;;;;;26.92;32.69;100137.13;5077677;28;19912;-66
2023/09/29 12:22:03;;;;;;;;;;;;;;;27.14;32.30;100127.25;5077214;28;20295;-66
2023/09/29 12:24:29;;;;;;;;;;;;;;;27.33;30.93;100127.06;5085834;28;20348;-66
2023/09/29 12:26:54;;;;;;;;;;;;;;;27.44;31.12;100119.38;5077629;28;20273;-66
2023/09/29 12:29:19;;;;;;;;;;;;;;;27.28;29.76;100133.53;5076748;28;19912;-66
2023/09/29 12:31:46;;;;;;;;;;;;;;;27.51;30.07;100134.34;5076945;28;19920;-66
2023/09/29 12:34:11;;;;;;;;;;;;;;;27.72;28.80;100133.78;5076804;28;19916;-66